sensor_id;sensor_type;location;lat;lon;timestamp;pressure;altitude;pressure_sealevel;temperature
60003;BMP280;46322;52.018;8.702;2023-02-28T00:04:45;101700.03;;;12.40
60003;BMP280;46322;52.018;8.702;2023-02-28T00:09:45;101704.38;;;12.18
60003;BMP280;46322;52.018;8.702;2023-02-28T00:14:46;101707.19;;;10.74
60003;BMP280;46322;52.018;8.702;2023-02-28T00:19:50;101707.69;;;10.08
60003;BMP280;46322;52.018;8.702;2023-02-28T00:24:50;101711.19;;;7.60
60003;BMP280;46322;52.018;8.702;2023-02-28T00:29:50;101716.50;;;8.78
60003;BMP280;46322;52.018;8.702;2023-02-28T00:34:51;101715.97;;;8.66
60003;BMP280;46322;52.018;8.702;2023-02-28T00:39:51;101722.22;;;9.56
60003;BMP280;46322;52.018;8.702;2023-02-28T00:44:51;101709.16;;;12.34
60003;BMP280;46322;52.018;8.702;2023-02-28T00:49:52;101720.91;;;11.96
60003;BMP280;46322;52.018;8.702;2023-02-28T00:54:52;101716.41;;;12.15
60003;BMP280;46322;52.018;8.702;2023-02-28T01:00:09;101722.88;;;11.90
60003;BMP280;46322;52.018;8.702;2023-02-28T01:05:10;101720.34;;;11.99
60003;BMP280;46322;52.018;8.702;2023-02-28T01:10:10;101722.00;;;12.14
60003;BMP280;46322;52.018;8.702;2023-02-28T01:15:11;101721.97;;;11.76
60003;BMP280;46322;52.018;8.702;2023-02-28T01:20:24;101717.75;;;11.32
60003;BMP280;46322;52.018;8.702;2023-02-28T01:25:24;101722.88;;;11.71
60003;BMP280;46322;52.018;8.702;2023-02-28T01:30:30;101716.63;;;11.38
60003;BMP280;46322;52.018;8.702;2023-02-28T01:35:34;101714.69;;;10.96
60003;BMP280;46322;52.018;8.702;2023-02-28T01:40:34;101713.88;;;10.96
60003;BMP280;46322;52.018;8.702;2023-02-28T01:45:35;101712.53;;;10.98
60003;BMP280;46322;52.018;8.702;2023-02-28T01:50:45;101714.97;;;10.95
60003;BMP280;46322;52.018;8.702;2023-02-28T01:55:48;101711.06;;;10.87
60003;BMP280;46322;52.018;8.702;2023-02-28T02:00:50;101718.41;;;10.66
60003;BMP280;46322;52.018;8.702;2023-02-28T02:05:51;101711.88;;;9.60
60003;BMP280;46322;52.018;8.702;2023-02-28T02:10:55;101709.13;;;10.93
60003;BMP280;46322;52.018;8.702;2023-02-28T02:16:11;101716.22;;;11.02
60003;BMP280;46322;52.018;8.702;2023-02-28T02:41:41;101700.84;;;9.97
60003;BMP280;46322;52.018;8.702;2023-02-28T02:46:45;101697.50;;;9.81
60003;BMP280;46322;52.018;8.702;2023-02-28T02:51:47;101702.28;;;9.79
60003;BMP280;46322;52.018;8.702;2023-02-28T02:56:48;101706.97;;;9.92
60003;BMP280;46322;52.018;8.702;2023-02-28T03:01:53;101708.53;;;9.39
60003;BMP280;46322;52.018;8.702;2023-02-28T03:06:54;101707.06;;;9.77
60003;BMP280;46322;52.018;8.702;2023-02-28T03:11:55;101712.44;;;10.11
60003;BMP280;46322;52.018;8.702;2023-02-28T03:17:12;101709.13;;;9.90
60003;BMP280;46322;52.018;8.702;2023-02-28T03:22:23;101709.00;;;9.46
60003;BMP280;46322;52.018;8.702;2023-02-28T03:27:35;101710.09;;;9.50
60003;BMP280;46322;52.018;8.702;2023-02-28T03:32:38;101708.78;;;10.02
60003;BMP280;46322;52.018;8.702;2023-02-28T03:37:42;101706.31;;;9.67
60003;BMP280;46322;52.018;8.702;2023-02-28T03:42:44;101702.94;;;10.00
60003;BMP280;46322;52.018;8.702;2023-02-28T03:52:54;101702.00;;;9.86
60003;BMP280;46322;52.018;8.702;2023-02-28T04:02:56;101702.22;;;9.20
60003;BMP280;46322;52.018;8.702;2023-02-28T04:08:04;101707.28;;;8.60
60003;BMP280;46322;52.018;8.702;2023-02-28T04:13:05;101707.44;;;9.45
60003;BMP280;46322;52.018;8.702;2023-02-28T04:18:05;101702.44;;;9.28
60003;BMP280;46322;52.018;8.702;2023-02-28T04:23:05;101698.94;;;9.48
60003;BMP280;46322;52.018;8.702;2023-02-28T04:28:06;101702.75;;;9.17
60003;BMP280;46322;52.018;8.702;2023-02-28T04:33:06;101697.97;;;9.19
60003;BMP280;46322;52.018;8.702;2023-02-28T04:38:06;101700.38;;;8.95
60003;BMP280;46322;52.018;8.702;2023-02-28T04:43:06;101701.69;;;9.07
60003;BMP280;46322;52.018;8.702;2023-02-28T04:48:06;101701.16;;;9.26
60003;BMP280;46322;52.018;8.702;2023-02-28T04:53:07;101699.31;;;9.16
60003;BMP280;46322;52.018;8.702;2023-02-28T04:58:07;101702.25;;;9.04
60003;BMP280;46322;52.018;8.702;2023-02-28T05:03:07;101703.34;;;8.73
60003;BMP280;46322;52.018;8.702;2023-02-28T05:08:07;101705.16;;;8.57
60003;BMP280;46322;52.018;8.702;2023-02-28T05:13:09;101716.78;;;8.66
60003;BMP280;46322;52.018;8.702;2023-02-28T05:18:10;101713.88;;;8.78
60003;BMP280;46322;52.018;8.702;2023-02-28T05:23:12;101717.31;;;8.53
60003;BMP280;46322;52.018;8.702;2023-02-28T05:28:12;101718.13;;;9.04
60003;BMP280;46322;52.018;8.702;2023-02-28T05:33:13;101715.19;;;8.40
60003;BMP280;46322;52.018;8.702;2023-02-28T05:38:13;101716.78;;;8.41
60003;BMP280;46322;52.018;8.702;2023-02-28T05:43:14;101727.34;;;8.66
60003;BMP280;46322;52.018;8.702;2023-02-28T05:48:14;101734.22;;;8.32
60003;BMP280;46322;52.018;8.702;2023-02-28T05:53:14;101731.34;;;8.79
60003;BMP280;46322;52.018;8.702;2023-02-28T05:58:14;101730.28;;;8.75
60003;BMP280;46322;52.018;8.702;2023-02-28T06:03:15;101725.13;;;8.02
60003;BMP280;46322;52.018;8.702;2023-02-28T06:08:15;101734.94;;;7.60
60003;BMP280;46322;52.018;8.702;2023-02-28T06:13:15;101733.41;;;8.41
60003;BMP280;46322;52.018;8.702;2023-02-28T06:18:16;101730.44;;;6.81
60003;BMP280;46322;52.018;8.702;2023-02-28T06:23:16;101741.09;;;7.28
60003;BMP280;46322;52.018;8.702;2023-02-28T06:28:16;101747.38;;;6.63
60003;BMP280;46322;52.018;8.702;2023-02-28T06:33:16;101738.59;;;6.08
60003;BMP280;46322;52.018;8.702;2023-02-28T06:38:17;101753.66;;;7.53
60003;BMP280;46322;52.018;8.702;2023-02-28T06:43:18;101750.91;;;9.09
60003;BMP280;46322;52.018;8.702;2023-02-28T06:48:18;101748.28;;;9.03
60003;BMP280;46322;52.018;8.702;2023-02-28T06:53:18;101759.72;;;7.16
60003;BMP280;46322;52.018;8.702;2023-02-28T06:58:22;101765.47;;;9.21
60003;BMP280;46322;52.018;8.702;2023-02-28T07:03:22;101765.16;;;9.43
60003;BMP280;46322;52.018;8.702;2023-02-28T07:08:23;101769.66;;;8.76
60003;BMP280;46322;52.018;8.702;2023-02-28T07:13:24;101788.72;;;8.68
60003;BMP280;46322;52.018;8.702;2023-02-28T07:18:25;101788.31;;;8.19
60003;BMP280;46322;52.018;8.702;2023-02-28T07:23:25;101787.97;;;7.53
60003;BMP280;46322;52.018;8.702;2023-02-28T07:28:28;101806.56;;;7.73
60003;BMP280;46322;52.018;8.702;2023-02-28T07:33:31;101808.28;;;6.66
60003;BMP280;46322;52.018;8.702;2023-02-28T07:38:36;101806.72;;;9.07
60003;BMP280;46322;52.018;8.702;2023-02-28T07:43:40;101793.69;;;10.31
60003;BMP280;46322;52.018;8.702;2023-02-28T07:48:43;101795.75;;;9.80
60003;BMP280;46322;52.018;8.702;2023-02-28T07:53:44;101795.09;;;10.57
60003;BMP280;46322;52.018;8.702;2023-02-28T07:58:45;101804.91;;;10.13
60003;BMP280;46322;52.018;8.702;2023-02-28T08:03:51;101793.88;;;10.45
60003;BMP280;46322;52.018;8.702;2023-02-28T08:08:53;101790.94;;;10.46
60003;BMP280;46322;52.018;8.702;2023-02-28T08:13:59;101789.69;;;9.74
60003;BMP280;46322;52.018;8.702;2023-02-28T08:18:59;101793.50;;;10.96
60003;BMP280;46322;52.018;8.702;2023-02-28T08:24:08;101789.88;;;10.86
60003;BMP280;46322;52.018;8.702;2023-02-28T08:29:09;101786.53;;;10.71
60003;BMP280;46322;52.018;8.702;2023-02-28T08:34:17;101800.75;;;11.14
60003;BMP280;46322;52.018;8.702;2023-02-28T08:39:20;101808.28;;;12.02
60003;BMP280;46322;52.018;8.702;2023-02-28T08:44:20;101799.94;;;11.66
60003;BMP280;46322;52.018;8.702;2023-02-28T08:49:21;101801.38;;;12.01
60003;BMP280;46322;52.018;8.702;2023-02-28T08:54:22;101806.41;;;12.03
60003;BMP280;46322;52.018;8.702;2023-02-28T08:59:22;101805.28;;;12.93
60003;BMP280;46322;52.018;8.702;2023-02-28T09:04:23;101805.84;;;11.63
60003;BMP280;46322;52.018;8.702;2023-02-28T09:09:24;101806.00;;;10.90
60003;BMP280;46322;52.018;8.702;2023-02-28T09:14:24;101806.22;;;12.18
60003;BMP280;46322;52.018;8.702;2023-02-28T09:19:25;101799.91;;;11.71
60003;BMP280;46322;52.018;8.702;2023-02-28T09:24:26;101794.41;;;12.43
60003;BMP280;46322;52.018;8.702;2023-02-28T09:29:26;101798.31;;;12.97
60003;BMP280;46322;52.018;8.702;2023-02-28T09:34:29;101795.09;;;13.68
60003;BMP280;46322;52.018;8.702;2023-02-28T09:39:32;101796.16;;;13.13
60003;BMP280;46322;52.018;8.702;2023-02-28T09:44:43;101807.19;;;12.41
60003;BMP280;46322;52.018;8.702;2023-02-28T09:49:47;101815.19;;;14.69
60003;BMP280;46322;52.018;8.702;2023-02-28T09:54:48;101804.25;;;13.07
60003;BMP280;46322;52.018;8.702;2023-02-28T10:05:08;101816.75;;;14.70
60003;BMP280;46322;52.018;8.702;2023-02-28T10:10:29;101812.25;;;14.57
60003;BMP280;46322;52.018;8.702;2023-02-28T10:15:31;101812.38;;;12.32
60003;BMP280;46322;52.018;8.702;2023-02-28T10:20:53;101810.47;;;13.03
60003;BMP280;46322;52.018;8.702;2023-02-28T10:26:10;101806.38;;;14.68
60003;BMP280;46322;52.018;8.702;2023-02-28T10:31:18;101802.00;;;14.50
60003;BMP280;46322;52.018;8.702;2023-02-28T10:36:21;101800.66;;;15.32
60003;BMP280;46322;52.018;8.702;2023-02-28T10:41:32;101800.19;;;14.82
60003;BMP280;46322;52.018;8.702;2023-02-28T10:46:41;101793.97;;;13.83
60003;BMP280;46322;52.018;8.702;2023-02-28T10:51:45;101793.91;;;14.33
60003;BMP280;46322;52.018;8.702;2023-02-28T10:57:06;101794.78;;;16.21
60003;BMP280;46322;52.018;8.702;2023-02-28T11:02:39;101788.47;;;13.66
60003;BMP280;46322;52.018;8.702;2023-02-28T11:07:40;101777.94;;;13.20
60003;BMP280;46322;52.018;8.702;2023-02-28T11:12:41;101780.84;;;15.16
60003;BMP280;46322;52.018;8.702;2023-02-28T11:18:02;101778.00;;;15.12
60003;BMP280;46322;52.018;8.702;2023-02-28T11:23:14;101774.06;;;14.70
60003;BMP280;46322;52.018;8.702;2023-02-28T11:28:35;101781.78;;;14.49
60003;BMP280;46322;52.018;8.702;2023-02-28T11:33:51;101779.56;;;14.74
60003;BMP280;46322;52.018;8.702;2023-02-28T11:38:55;101771.84;;;14.41
60003;BMP280;46322;52.018;8.702;2023-02-28T11:44:27;101768.34;;;14.94
60003;BMP280;46322;52.018;8.702;2023-02-28T11:55:17;101755.31;;;14.61
60003;BMP280;46322;52.018;8.702;2023-02-28T12:16:46;101732.00;;;18.36
60003;BMP280;46322;52.018;8.702;2023-02-28T12:27:22;101736.16;;;18.57
60003;BMP280;46322;52.018;8.702;2023-02-28T12:32:35;101733.63;;;19.41
60003;BMP280;46322;52.018;8.702;2023-02-28T12:37:49;101725.63;;;19.57
60003;BMP280;46322;52.018;8.702;2023-02-28T12:43:07;101719.59;;;18.80
60003;BMP280;46322;52.018;8.702;2023-02-28T12:48:13;101715.41;;;18.82
60003;BMP280;46322;52.018;8.702;2023-02-28T12:53:31;101708.06;;;16.14
60003;BMP280;46322;52.018;8.702;2023-02-28T12:58:40;101711.31;;;18.48
60003;BMP280;46322;52.018;8.702;2023-02-28T13:04:16;101695.44;;;18.55
60003;BMP280;46322;52.018;8.702;2023-02-28T13:09:21;101694.03;;;19.54
60003;BMP280;46322;52.018;8.702;2023-02-28T13:14:29;101696.38;;;20.50
60003;BMP280;46322;52.018;8.702;2023-02-28T13:19:33;101687.97;;;20.20
60003;BMP280;46322;52.018;8.702;2023-02-28T13:24:49;101689.44;;;19.54
60003;BMP280;46322;52.018;8.702;2023-02-28T13:29:52;101686.69;;;20.64
60003;BMP280;46322;52.018;8.702;2023-02-28T13:39:56;101683.66;;;18.11
60003;BMP280;46322;52.018;8.702;2023-02-28T13:50:28;101681.03;;;19.56
60003;BMP280;46322;52.018;8.702;2023-02-28T13:55:53;101683.47;;;19.77
60003;BMP280;46322;52.018;8.702;2023-02-28T14:01:31;101666.22;;;19.78
60003;BMP280;46322;52.018;8.702;2023-02-28T14:06:46;101669.25;;;19.60
60003;BMP280;46322;52.018;8.702;2023-02-28T14:11:53;101669.47;;;21.99
60003;BMP280;46322;52.018;8.702;2023-02-28T14:16:57;101668.63;;;19.98
60003;BMP280;46322;52.018;8.702;2023-02-28T14:22:16;101657.28;;;19.89
60003;BMP280;46322;52.018;8.702;2023-02-28T14:32:33;101657.91;;;23.73
60003;BMP280;46322;52.018;8.702;2023-02-28T14:37:38;101653.63;;;24.40
60003;BMP280;46322;52.018;8.702;2023-02-28T14:42:48;101634.75;;;22.53
60003;BMP280;46322;52.018;8.702;2023-02-28T14:48:08;101630.97;;;22.32
60003;BMP280;46322;52.018;8.702;2023-02-28T14:53:17;101636.88;;;24.17
60003;BMP280;46322;52.018;8.702;2023-02-28T14:58:27;101630.28;;;21.82
60003;BMP280;46322;52.018;8.702;2023-02-28T15:03:38;101638.06;;;21.87
60003;BMP280;46322;52.018;8.702;2023-02-28T15:08:40;101640.22;;;22.94
60003;BMP280;46322;52.018;8.702;2023-02-28T15:13:43;101639.34;;;23.27
60003;BMP280;46322;52.018;8.702;2023-02-28T15:18:55;101644.91;;;22.67
60003;BMP280;46322;52.018;8.702;2023-02-28T15:24:19;101642.81;;;19.50
60003;BMP280;46322;52.018;8.702;2023-02-28T15:29:25;101642.81;;;20.83
60003;BMP280;46322;52.018;8.702;2023-02-28T15:34:35;101642.47;;;21.72
60003;BMP280;46322;52.018;8.702;2023-02-28T15:39:45;101641.53;;;21.88
60003;BMP280;46322;52.018;8.702;2023-02-28T15:45:03;101644.00;;;19.96
60003;BMP280;46322;52.018;8.702;2023-02-28T15:50:14;101636.03;;;19.41
60003;BMP280;46322;52.018;8.702;2023-02-28T15:55:28;101646.97;;;19.04
60003;BMP280;46322;52.018;8.702;2023-02-28T16:00:31;101643.38;;;18.36
60003;BMP280;46322;52.018;8.702;2023-02-28T16:05:32;101641.47;;;17.42
60003;BMP280;46322;52.018;8.702;2023-02-28T16:10:39;101644.59;;;15.68
60003;BMP280;46322;52.018;8.702;2023-02-28T16:15:44;101641.63;;;16.54
60003;BMP280;46322;52.018;8.702;2023-02-28T16:21:04;101644.31;;;16.16
60003;BMP280;46322;52.018;8.702;2023-02-28T16:26:07;101640.09;;;16.44
60003;BMP280;46322;52.018;8.702;2023-02-28T16:31:13;101641.56;;;15.95
60003;BMP280;46322;52.018;8.702;2023-02-28T16:41:21;101641.28;;;16.26
60003;BMP280;46322;52.018;8.702;2023-02-28T16:46:22;101644.56;;;16.70
60003;BMP280;46322;52.018;8.702;2023-02-28T16:51:23;101653.84;;;15.10
60003;BMP280;46322;52.018;8.702;2023-02-28T16:56:24;101654.56;;;13.60
60003;BMP280;46322;52.018;8.702;2023-02-28T17:01:24;101649.53;;;13.81
60003;BMP280;46322;52.018;8.702;2023-02-28T17:06:27;101656.91;;;14.29
60003;BMP280;46322;52.018;8.702;2023-02-28T17:11:28;101657.66;;;15.86
60003;BMP280;46322;52.018;8.702;2023-02-28T17:16:33;101659.19;;;15.01
60003;BMP280;46322;52.018;8.702;2023-02-28T17:21:34;101662.97;;;13.40
60003;BMP280;46322;52.018;8.702;2023-02-28T17:26:35;101660.00;;;12.78
60003;BMP280;46322;52.018;8.702;2023-02-28T17:31:35;101662.09;;;14.34
60003;BMP280;46322;52.018;8.702;2023-02-28T17:36:36;101665.66;;;13.98
60003;BMP280;46322;52.018;8.702;2023-02-28T17:41:36;101676.63;;;13.97
60003;BMP280;46322;52.018;8.702;2023-02-28T17:46:37;101676.38;;;14.69
60003;BMP280;46322;52.018;8.702;2023-02-28T17:51:38;101679.16;;;13.80
60003;BMP280;46322;52.018;8.702;2023-02-28T17:56:38;101685.44;;;14.59
60003;BMP280;46322;52.018;8.702;2023-02-28T18:01:42;101690.72;;;14.82
60003;BMP280;46322;52.018;8.702;2023-02-28T18:06:43;101693.44;;;13.12
60003;BMP280;46322;52.018;8.702;2023-02-28T18:11:44;101696.97;;;14.38
60003;BMP280;46322;52.018;8.702;2023-02-28T18:16:45;101704.09;;;12.19
60003;BMP280;46322;52.018;8.702;2023-02-28T18:21:48;101700.53;;;13.66
60003;BMP280;46322;52.018;8.702;2023-02-28T18:26:49;101703.81;;;13.85
60003;BMP280;46322;52.018;8.702;2023-02-28T18:31:51;101699.00;;;12.55
60003;BMP280;46322;52.018;8.702;2023-02-28T18:36:51;101702.66;;;12.87
60003;BMP280;46322;52.018;8.702;2023-02-28T18:41:52;101694.47;;;13.88
60003;BMP280;46322;52.018;8.702;2023-02-28T18:46:52;101693.22;;;13.58
60003;BMP280;46322;52.018;8.702;2023-02-28T18:51:52;101696.28;;;15.11
60003;BMP280;46322;52.018;8.702;2023-02-28T18:56:52;101692.41;;;14.69
60003;BMP280;46322;52.018;8.702;2023-02-28T19:01:53;101690.06;;;14.76
60003;BMP280;46322;52.018;8.702;2023-02-28T19:06:53;101687.81;;;14.61
60003;BMP280;46322;52.018;8.702;2023-02-28T19:11:53;101691.28;;;14.61
60003;BMP280;46322;52.018;8.702;2023-02-28T19:16:54;101689.72;;;14.38
60003;BMP280;46322;52.018;8.702;2023-02-28T19:21:54;101688.97;;;14.38
60003;BMP280;46322;52.018;8.702;2023-02-28T19:26:54;101692.25;;;14.34
60003;BMP280;46322;52.018;8.702;2023-02-28T19:31:55;101694.50;;;14.19
60003;BMP280;46322;52.018;8.702;2023-02-28T19:36:55;101691.75;;;14.10
60003;BMP280;46322;52.018;8.702;2023-02-28T19:41:55;101701.59;;;14.01
60003;BMP280;46322;52.018;8.702;2023-02-28T19:46:56;101704.06;;;13.97
60003;BMP280;46322;52.018;8.702;2023-02-28T19:51:56;101712.72;;;13.81
60003;BMP280;46322;52.018;8.702;2023-02-28T19:56:57;101701.38;;;13.75
60003;BMP280;46322;52.018;8.702;2023-02-28T20:01:57;101690.06;;;13.20
60003;BMP280;46322;52.018;8.702;2023-02-28T20:06:57;101686.69;;;13.42
60003;BMP280;46322;52.018;8.702;2023-02-28T20:11:57;101686.22;;;13.12
60003;BMP280;46322;52.018;8.702;2023-02-28T20:16:58;101692.03;;;13.14
60003;BMP280;46322;52.018;8.702;2023-02-28T20:21:58;101697.03;;;12.74
60003;BMP280;46322;52.018;8.702;2023-02-28T20:26:58;101700.13;;;12.17
60003;BMP280;46322;52.018;8.702;2023-02-28T20:31:59;101696.75;;;12.76
60003;BMP280;46322;52.018;8.702;2023-02-28T20:37:00;101711.66;;;12.77
60003;BMP280;46322;52.018;8.702;2023-02-28T20:42:00;101713.59;;;12.39
60003;BMP280;46322;52.018;8.702;2023-02-28T20:47:02;101712.25;;;12.41
60003;BMP280;46322;52.018;8.702;2023-02-28T20:52:03;101719.56;;;12.50
60003;BMP280;46322;52.018;8.702;2023-02-28T20:57:03;101720.50;;;12.40
60003;BMP280;46322;52.018;8.702;2023-02-28T21:02:03;101717.47;;;12.47
60003;BMP280;46322;52.018;8.702;2023-02-28T21:07:08;101719.91;;;12.10
60003;BMP280;46322;52.018;8.702;2023-02-28T21:12:08;101719.53;;;12.17
60003;BMP280;46322;52.018;8.702;2023-02-28T21:17:09;101723.22;;;12.21
60003;BMP280;46322;52.018;8.702;2023-02-28T21:22:09;101722.63;;;12.05
60003;BMP280;46322;52.018;8.702;2023-02-28T21:27:09;101727.03;;;11.96
60003;BMP280;46322;52.018;8.702;2023-02-28T21:32:09;101726.00;;;12.11
60003;BMP280;46322;52.018;8.702;2023-02-28T21:37:10;101720.09;;;12.00
60003;BMP280;46322;52.018;8.702;2023-02-28T21:42:10;101724.94;;;11.93
60003;BMP280;46322;52.018;8.702;2023-02-28T21:47:10;101709.88;;;11.46
60003;BMP280;46322;52.018;8.702;2023-02-28T21:52:10;101719.00;;;11.40
60003;BMP280;46322;52.018;8.702;2023-02-28T21:57:11;101725.19;;;11.06
60003;BMP280;46322;52.018;8.702;2023-02-28T22:02:12;101722.63;;;10.96
60003;BMP280;46322;52.018;8.702;2023-02-28T22:07:13;101727.06;;;11.30
60003;BMP280;46322;52.018;8.702;2023-02-28T22:12:13;101718.84;;;11.50
60003;BMP280;46322;52.018;8.702;2023-02-28T22:17:13;101722.63;;;11.49
60003;BMP280;46322;52.018;8.702;2023-02-28T22:22:13;101718.19;;;11.39
60003;BMP280;46322;52.018;8.702;2023-02-28T22:27:14;101714.81;;;11.34
60003;BMP280;46322;52.018;8.702;2023-02-28T22:32:14;101711.03;;;11.16
60003;BMP280;46322;52.018;8.702;2023-02-28T22:37:15;101716.72;;;11.28
60003;BMP280;46322;52.018;8.702;2023-02-28T22:42:16;101729.16;;;11.33
60003;BMP280;46322;52.018;8.702;2023-02-28T22:47:16;101727.69;;;11.45
60003;BMP280;46322;52.018;8.702;2023-02-28T22:52:17;101727.31;;;11.04
60003;BMP280;46322;52.018;8.702;2023-02-28T22:57:17;101729.75;;;11.01
60003;BMP280;46322;52.018;8.702;2023-02-28T23:02:17;101725.25;;;11.01
60003;BMP280;46322;52.018;8.702;2023-02-28T23:07:18;101726.72;;;10.20
60003;BMP280;46322;52.018;8.702;2023-02-28T23:12:18;101726.31;;;10.71
60003;BMP280;46322;52.018;8.702;2023-02-28T23:17:18;101723.41;;;6.91
60003;BMP280;46322;52.018;8.702;2023-02-28T23:22:18;101716.47;;;9.99
60003;BMP280;46322;52.018;8.702;2023-02-28T23:27:19;101707.25;;;9.06
60003;BMP280;46322;52.018;8.702;2023-02-28T23:32:19;101708.34;;;8.64
60003;BMP280;46322;52.018;8.702;2023-02-28T23:37:19;101718.78;;;10.54
60003;BMP280;46322;52.018;8.702;2023-02-28T23:42:19;101710.91;;;10.73
60003;BMP280;46322;52.018;8.702;2023-02-28T23:47:20;101714.31;;;10.06
60003;BMP280;46322;52.018;8.702;2023-02-28T23:52:21;101716.09;;;10.20
60003;BMP280;46322;52.018;8.702;2023-02-28T23:57:21;101708.38;;;9.70
